Time;durP1;ratioP1;P1;durP2;ratioP2;P2;SDS_P1;SDS_P2;PMS_P1;PMS_P2;Temp;Humidity;BMP_temperature;BMP_pressure;BME280_temperature;BME280_humidity;BME280_pressure;Samples;Min_cycle;Max_cycle;Signal;HPM_P1;HPM_P2
2022/11/29 00:01:22;;;;;;;2.50;2.33;;;0.50;99.90;;;;;;4957942;29;20239;-87
2022/11/29 00:03:48;;;;;;;5.77;4.93;;;;;;;;;;4973850;28;20183;-87
2022/11/29 00:06:29;;;;;;;12.13;4.57;;;0.50;99.90;;;;;;4957707;29;20248;-86
2022/11/29 00:08:59;;;;;;;4.17;3.07;;;0.50;99.90;;;;;;4973882;28;20692;-86
2022/11/29 00:14:20;;;;;;;3.80;3.53;;;0.50;99.90;;;;;;4958734;29;20671;-86
2022/11/29 00:17:03;;;;;;;6.37;2.90;;;0.50;99.90;;;;;;4958540;29;20167;-86
2022/11/29 00:19:32;;;;;;;3.27;2.97;;;0.50;99.90;;;;;;4973491;28;20187;-87
2022/11/29 00:22:01;;;;;;;12.30;4.50;;;0.50;99.90;;;;;;4979576;28;20268;-86
2022/11/29 00:24:30;;;;;;;9.13;4.67;;;;;;;;;;4948282;28;20201;-86
2022/11/29 00:27:02;;;;;;;3.20;2.97;;;;;;;;;;4979589;28;20221;-86
2022/11/29 00:29:40;;;;;;;;;;;;;;;;;;;;;
2022/11/29 00:32:10;;;;;;;6.67;3.93;;;0.50;99.90;;;;;;4986857;28;20173;-86
2022/11/29 00:34:39;;;;;;;8.47;4.87;;;;;;;;;;5021860;28;20177;-86
2022/11/29 00:37:12;;;;;;;6.67;3.80;;;0.50;99.90;;;;;;5004919;28;20162;-89
2022/11/29 00:39:40;;;;;;;5.33;3.77;;;0.50;99.90;;;;;;5004467;28;20237;-86
2022/11/29 00:42:06;;;;;;;5.37;3.67;;;;;;;;;;4988077;28;20317;-86
2022/11/29 00:44:33;;;;;;;7.40;3.37;;;0.50;99.90;;;;;;5004552;28;20166;-87
2022/11/29 00:47:01;;;;;;;8.00;3.73;;;;;;;;;;5004299;28;20325;-86
2022/11/29 00:49:27;;;;;;;6.77;4.47;;;;;;;;;;5003637;28;20182;-86
2022/11/29 00:51:56;;;;;;;2.83;2.63;;;;;;;;;;5019124;28;20185;-91
2022/11/29 00:54:22;;;;;;;12.83;5.87;;;;;;;;;;4988880;28;20208;-86
2022/11/29 00:56:53;;;;;;;11.93;3.73;;;;;;;;;;5004585;28;20226;-86
2022/11/29 00:59:21;;;;;;;4.20;3.50;;;;;;;;;;5003787;28;20243;-86
2022/11/29 01:01:50;;;;;;;4.90;3.93;;;;;;;;;;5004462;28;20166;-85
2022/11/29 01:04:16;;;;;;;5.50;4.63;;;;;;;;;;5004167;28;20216;-86
2022/11/29 01:06:44;;;;;;;3.77;2.67;;;0.70;99.90;;;;;;4998079;28;20194;-86
2022/11/29 01:09:10;;;;;;;7.37;3.97;;;;;;;;;;4997069;28;20181;-86
2022/11/29 01:11:38;;;;;;;5.10;2.67;;;;;;;;;;4979851;28;20217;-86
2022/11/29 01:14:06;;;;;;;6.17;3.83;;;;;;;;;;4979256;28;20213;-86
2022/11/29 01:16:37;;;;;;;6.60;4.23;;;0.70;99.90;;;;;;4993485;28;20194;-85
2022/11/29 01:19:06;;;;;;;6.17;3.03;;;;;;;;;;4976314;28;20202;-85
2022/11/29 01:21:32;;;;;;;5.63;4.30;;;;;;;;;;4975969;28;20186;-85
2022/11/29 01:24:03;;;;;;;12.53;6.30;;;0.70;99.90;;;;;;4975899;28;20281;-86
2022/11/29 01:26:31;;;;;;;7.27;3.23;;;;;;;;;;4960258;28;20274;-86
2022/11/29 01:28:58;;;;;;;8.87;3.53;;;;;;;;;;4976697;28;20194;-87
2022/11/29 01:31:34;;;;;;;3.87;2.47;;;0.70;99.90;;;;;;4975504;28;20179;-86
2022/11/29 01:34:02;;;;;;;5.53;3.27;;;0.70;99.90;;;;;;4975461;28;20213;-87
2022/11/29 01:36:31;;;;;;;14.67;4.03;;;;;;;;;;4975736;28;20232;-86
2022/11/29 01:38:59;;;;;;;4.20;3.77;;;0.70;99.90;;;;;;4974893;28;20182;-88
2022/11/29 01:41:27;;;;;;;3.67;3.37;;;0.80;99.90;;;;;;4975366;28;20175;-87
2022/11/29 01:43:58;;;;;;;10.97;4.50;;;0.70;99.90;;;;;;4975234;28;20651;-88
2022/11/29 01:46:25;;;;;;;8.13;4.00;;;;;;;;;;4976567;28;20179;-87
2022/11/29 01:48:59;;;;;;;6.37;5.37;;;0.70;99.90;;;;;;4975218;28;20210;-86
2022/11/29 01:51:29;;;;;;;7.93;5.10;;;0.80;99.90;;;;;;4975517;28;20187;-86
2022/11/29 01:53:55;;;;;;;15.97;3.53;;;;;;;;;;4976002;28;20687;-86
2022/11/29 01:56:21;;;;;;;8.43;4.20;;;;;;;;;;4974349;28;20230;-86
2022/11/29 01:58:47;;;;;;;8.10;4.27;;;;;;;;;;4975182;28;20190;-86
2022/11/29 02:01:14;;;;;;;5.00;4.10;;;;;;;;;;4974624;28;20193;-85
2022/11/29 02:03:40;;;;;;;6.93;3.63;;;;;;;;;;4976391;28;20261;-86
2022/11/29 02:06:06;;;;;;;11.50;3.60;;;;;;;;;;4974708;28;20379;-85
2022/11/29 02:08:37;;;;;;;2.97;2.67;;;0.80;99.90;;;;;;4974622;28;20187;-87
2022/11/29 02:11:15;;;;;;;6.33;4.70;;;0.60;99.90;;;;;;4973931;28;20182;-87
2022/11/29 02:13:52;;;;;;;6.23;4.13;;;0.80;99.90;;;;;;4974642;28;20226;-87
2022/11/29 02:16:43;;;;;;;6.43;4.43;;;0.70;99.90;;;;;;4956099;29;20175;-87
2022/11/29 02:19:09;;;;;;;12.77;4.33;;;;;;;;;;4925543;29;20187;-87
2022/11/29 02:21:49;;;;;;;4.30;3.67;;;0.70;99.90;;;;;;4955052;29;20277;-87
2022/11/29 02:24:49;;;;;;;5.67;4.87;;;0.80;99.90;;;;;;4955014;29;20219;-87
2022/11/29 02:27:33;;;;;;;3.47;2.90;;;0.70;99.90;;;;;;4956188;29;20219;-87
2022/11/29 02:30:07;;;;;;;7.17;4.37;;;0.70;99.90;;;;;;4939266;29;20187;-87
2022/11/29 02:32:48;;;;;;;4.83;4.20;;;0.70;99.90;;;;;;4956338;29;20221;-87
2022/11/29 02:35:50;;;;;;;4.80;3.73;;;0.70;99.90;;;;;;4956061;29;20159;-87
2022/11/29 02:38:50;;;;;;;10.07;3.53;;;0.70;99.90;;;;;;4938799;29;20187;-87
2022/11/29 02:41:34;;;;;;;4.60;4.20;;;0.60;99.90;;;;;;4955963;29;20172;-87
2022/11/29 02:44:09;;;;;;;5.60;3.60;;;0.70;99.90;;;;;;4938776;29;20207;-85
2022/11/29 02:46:59;;;;;;;7.23;3.33;;;0.70;99.90;;;;;;4939002;29;20185;-86
2022/11/29 02:49:44;;;;;;;5.10;3.33;;;0.40;99.90;;;;;;4955790;29;20637;-86
2022/11/29 02:52:16;;;;;;;7.00;3.47;;;0.70;99.90;;;;;;4954588;29;20238;-86
2022/11/29 02:54:54;;;;;;;1.80;1.70;;;0.60;99.90;;;;;;4955655;29;20174;-87
2022/11/29 02:57:47;;;;;;;3.73;3.43;;;0.70;99.90;;;;;;4954024;28;20282;-86
2022/11/29 03:00:18;;;;;;;16.13;8.23;;;0.70;99.90;;;;;;4954340;29;20190;-87
2022/11/29 03:02:50;;;;;;;6.10;4.00;;;0.70;99.90;;;;;;4954905;29;20187;-86
2022/11/29 03:05:34;;;;;;;9.27;3.23;;;0.60;99.90;;;;;;4938239;29;20187;-87
2022/11/29 03:07:59;;;;;;;4.27;2.90;;;;;;;;;;4938583;29;20187;-86
2022/11/29 03:10:37;;;;;;;5.70;3.67;;;0.90;99.90;;;;;;4957682;28;20205;-86
2022/11/29 03:13:08;;;;;;;15.93;5.77;;;0.60;99.90;;;;;;4973341;28;20214;-87
2022/11/29 03:15:45;;;;;;;6.53;2.33;;;0.70;99.90;;;;;;4975152;28;20170;-86
2022/11/29 03:18:45;;;;;;;5.13;3.50;;;0.60;99.90;;;;;;4973301;28;20189;-87
2022/11/29 03:21:58;;;;;;;6.33;4.43;;;0.70;99.90;;;;;;4973224;28;20186;-87
2022/11/29 03:24:46;;;;;;;3.57;3.27;;;0.70;99.90;;;;;;4910051;28;20190;-87
2022/11/29 03:27:22;;;;;;;2.90;2.67;;;0.70;99.90;;;;;;4973357;28;20182;-87
2022/11/29 03:30:01;;;;;;;9.77;4.47;;;0.60;99.90;;;;;;4973710;28;20217;-86
2022/11/29 03:32:41;;;;;;;2.73;2.60;;;0.70;99.90;;;;;;4973148;28;20784;-88
2022/11/29 03:35:25;;;;;;;5.57;3.87;;;0.70;99.90;;;;;;4973647;28;20178;-88
2022/11/29 03:38:28;;;;;;;4.43;3.23;;;0.60;99.90;;;;;;4973275;28;20277;-87
2022/11/29 03:41:27;;;;;;;3.77;3.47;;;0.70;99.90;;;;;;4973361;28;20582;-87
2022/11/29 03:44:20;;;;;;;4.97;3.97;;;0.70;99.90;;;;;;4974736;28;20192;-87
2022/11/29 03:47:17;;;;;;;4.03;3.30;;;0.70;99.90;;;;;;4973471;28;20620;-88
2022/11/29 03:50:01;;;;;;;3.77;3.43;;;0.70;99.90;;;;;;4974593;28;20178;-88
2022/11/29 03:52:54;;;;;;;9.03;3.87;;;0.70;99.90;;;;;;4972784;28;20262;-87
2022/11/29 03:55:20;;;;;;;10.30;4.73;;;;;;;;;;4954693;29;20577;-89
2022/11/29 03:58:18;;;;;;;3.93;3.30;;;0.40;99.90;;;;;;4969513;28;20292;-87
2022/11/29 04:00:47;;;;;;;2.97;2.03;;;0.60;99.90;;;;;;4965552;28;20205;-87
2022/11/29 04:03:50;;;;;;;4.27;3.37;;;0.60;99.90;;;;;;4973662;28;20214;-90
2022/11/29 04:06:37;;;;;;;7.87;4.83;;;0.70;99.90;;;;;;4973897;28;20216;-87
2022/11/29 04:09:34;;;;;;;4.30;2.10;;;4.00;99.90;;;;;;4976599;28;20179;-90
2022/11/29 04:12:10;;;;;;;12.53;4.93;;;0.70;99.90;;;;;;4973044;28;20194;-86
2022/11/29 04:14:58;;;;;;;10.83;5.60;;;0.70;99.90;;;;;;4972942;28;20699;-88
2022/11/29 04:17:44;;;;;;;3.23;2.70;;;0.70;99.90;;;;;;4974579;28;20191;-87
2022/11/29 04:20:45;;;;;;;14.07;3.23;;;0.30;99.90;;;;;;4974467;28;20249;-87
2022/11/29 04:23:39;;;;;;;3.47;3.17;;;0.60;99.90;;;;;;4952660;28;20191;-88
2022/11/29 04:26:31;;;;;;;18.00;5.20;;;0.60;99.90;;;;;;4973096;28;20182;-87
2022/11/29 04:29:05;;;;;;;8.77;4.37;;;0.70;99.90;;;;;;4972859;28;20171;-87
2022/11/29 04:31:46;;;;;;;4.17;3.73;;;0.60;99.90;;;;;;4973059;28;20273;-86
2022/11/29 04:34:38;;;;;;;8.10;3.37;;;0.70;99.90;;;;;;4973438;28;20214;-88
2022/11/29 04:37:48;;;;;;;7.17;2.93;;;0.70;99.90;;;;;;4977533;28;20197;-87
2022/11/29 04:40:51;;;;;;;3.97;2.07;;;0.70;99.90;;;;;;4945449;28;20194;-87
2022/11/29 04:43:38;;;;;;;13.07;4.50;;;0.70;99.90;;;;;;4975810;28;20607;-90
2022/11/29 04:46:22;;;;;;;3.67;3.37;;;0.70;99.90;;;;;;4956841;29;20224;-87
2022/11/29 04:48:48;;;;;;;3.50;2.77;;;;;;;;;;4968548;28;20183;-87
2022/11/29 04:51:42;;;;;;;7.93;3.13;;;0.70;99.90;;;;;;4972214;28;20202;-87
2022/11/29 04:54:26;;;;;;;2.30;2.10;;;0.70;99.90;;;;;;4972685;28;20250;-87
2022/11/29 04:57:06;;;;;;;4.87;4.40;;;0.70;99.90;;;;;;4972897;28;20227;-87
2022/11/29 04:59:43;;;;;;;4.17;2.63;;;0.70;99.90;;;;;;4972515;28;20671;-87
2022/11/29 05:02:09;;;;;;;1.80;1.70;;;;;;;;;;4973156;28;20197;-88
2022/11/29 05:04:42;;;;;;;8.23;4.27;;;0.70;99.90;;;;;;4975691;28;20187;-87
2022/11/29 05:07:37;;;;;;;3.83;3.50;;;0.70;99.90;;;;;;4975935;28;20241;-88
2022/11/29 05:10:41;;;;;;;3.73;3.13;;;0.70;99.90;;;;;;4961770;28;20240;-87
2022/11/29 05:13:22;;;;;;;3.67;3.00;;;0.70;99.90;;;;;;4996501;28;20289;-87
2022/11/29 05:16:01;;;;;;;3.53;2.17;;;0.60;99.90;;;;;;4976010;28;20274;-88
2022/11/29 05:18:56;;;;;;;3.47;2.47;;;0.70;99.90;;;;;;4975482;28;20199;-88
2022/11/29 05:21:51;;;;;;;4.97;3.10;;;0.70;99.90;;;;;;4978385;28;20273;-89
2022/11/29 05:24:20;;;;;;;8.10;3.27;;;;;;;;;;4975144;28;20210;-88
2022/11/29 05:27:07;;;;;;;7.40;3.73;;;0.70;99.90;;;;;;4974814;28;20631;-88
2022/11/29 05:29:48;;;;;;;12.00;3.10;;;0.70;99.90;;;;;;4974552;28;20208;-87
2022/11/29 05:32:34;;;;;;;6.87;3.53;;;0.40;99.90;;;;;;4973716;28;20189;-88
2022/11/29 05:35:02;;;;;;;4.97;3.57;;;;;;;;;;4966680;28;20206;-88
2022/11/29 05:37:37;;;;;;;3.53;3.03;;;0.80;99.90;;;;;;4969228;28;20186;-90
2022/11/29 05:40:26;;;;;;;3.67;3.37;;;0.70;99.90;;;;;;4977628;28;20192;-89
2022/11/29 05:43:13;;;;;;;3.73;2.77;;;0.70;99.90;;;;;;4969155;28;20230;-89
2022/11/29 05:45:50;;;;;;;3.27;3.07;;;0.60;99.90;;;;;;4974943;28;20261;-89
2022/11/29 05:48:51;;;;;;;9.93;3.53;;;0.60;99.90;;;;;;4967897;28;20225;-90
2022/11/29 05:51:32;;;;;;;3.60;3.10;;;0.70;99.90;;;;;;4967068;28;20182;-90
2022/11/29 05:54:28;;;;;;;6.23;3.83;;;0.50;99.90;;;;;;4963687;28;20215;-89
2022/11/29 05:57:10;;;;;;;10.33;3.20;;;0.70;99.90;;;;;;4968716;28;20253;-88
2022/11/29 05:59:40;;;;;;;3.63;2.60;;;0.70;99.90;;;;;;4976255;28;20244;-90
2022/11/29 06:02:26;;;;;;;4.53;4.13;;;0.70;99.90;;;;;;4978015;28;20825;-87
2022/11/29 06:04:58;;;;;;;5.37;3.37;;;0.70;99.90;;;;;;4976515;28;20197;-87
2022/11/29 06:07:47;;;;;;;8.87;3.67;;;3.40;99.90;;;;;;4958597;28;20648;-87
2022/11/29 06:10:17;;;;;;;4.17;3.80;;;0.70;99.90;;;;;;4965674;28;20198;-87
2022/11/29 06:13:10;;;;;;;2.50;2.17;;;0.60;99.90;;;;;;4994408;28;20702;-88
2022/11/29 06:16:01;;;;;;;3.53;3.00;;;0.60;99.90;;;;;;4972565;28;20712;-86
2022/11/29 06:18:56;;;;;;;4.10;3.47;;;0.60;99.90;;;;;;4994749;28;20208;-86
2022/11/29 06:22:19;;;;;;;;;;;;;;;;;;;;;
2022/11/29 06:35:01;;;;;;;4.07;3.27;;;0.60;99.90;;;;;;4914700;29;20232;-91
2022/11/29 06:38:00;;;;;;;;;;;;;;;;;;;;;
2022/11/29 06:40:53;;;;;;;3.67;1.97;;;0.60;99.90;;;;;;4865086;29;20254;-90
2022/11/29 06:43:30;;;;;;;;;;;;;;;;;;;;;
2022/11/29 06:46:35;;;;;;;;;;;;;;;;;;;;;
2022/11/29 06:49:27;;;;;;;5.87;4.60;;;0.60;99.90;;;;;;4861219;29;20560;-91
2022/11/29 06:56:11;;;;;;;2.87;2.50;;;0.60;99.90;;;;;;4847151;29;20210;-90
2022/11/29 06:59:26;;;;;;;;;;;;;;;;;;;;;
2022/11/29 07:05:36;;;;;;;7.70;3.37;;;0.70;99.90;;;;;;4982341;28;20179;-87
2022/11/29 07:08:18;;;;;;;7.33;3.87;;;0.80;99.90;;;;;;4972793;28;20182;-91
2022/11/29 07:11:09;;;;;;;2.20;2.10;;;0.80;99.90;;;;;;4986606;28;20255;-93
2022/11/29 07:13:49;;;;;;;7.80;4.00;;;0.80;99.90;;;;;;4988161;28;20312;-95
2022/11/29 07:19:51;;;;;;;3.67;3.03;;;0.80;99.90;;;;;;5263224;23;20233;-91
2022/11/29 07:22:55;;;;;;;2.83;2.67;;;0.80;99.90;;;;;;4995640;28;20206;-88
2022/11/29 07:25:44;;;;;;;3.87;3.40;;;0.80;99.90;;;;;;5179383;23;20296;-93
2022/11/29 07:28:40;;;;;;;5.60;2.03;;;0.80;99.90;;;;;;4999933;28;20245;-89
2022/11/29 07:31:40;;;;;;;5.43;3.03;;;0.80;99.90;;;;;;5013242;28;20166;-89
2022/11/29 07:34:27;;;;;;;4.07;3.27;;;0.80;99.90;;;;;;5016553;28;20202;-88
2022/11/29 07:37:09;;;;;;;6.30;3.83;;;0.90;99.90;;;;;;5011701;28;20208;-87
2022/11/29 07:39:53;;;;;;;7.53;4.33;;;0.90;99.90;;;;;;4996504;28;20205;-86
2022/11/29 07:42:48;;;;;;;6.83;4.00;;;0.90;99.90;;;;;;4981104;28;20205;-86
2022/11/29 07:45:26;;;;;;;4.53;3.10;;;0.90;99.90;;;;;;4998486;28;20186;-87
2022/11/29 07:47:52;;;;;;;3.57;3.27;;;;;;;;;;4994273;28;20193;-87
2022/11/29 07:50:19;;;;;;;5.87;3.43;;;;;;;;;;4957049;28;20188;-88
2022/11/29 07:52:45;;;;;;;4.13;3.63;;;;;;;;;;4974501;28;20174;-86
2022/11/29 07:55:22;;;;;;;3.90;3.00;;;1.00;99.90;;;;;;4971544;28;20193;-87
2022/11/29 07:57:49;;;;;;;2.80;2.60;;;1.10;99.90;;;;;;4977552;28;20213;-87
2022/11/29 08:00:17;;;;;;;6.47;3.47;;;1.10;99.90;;;;;;4976890;28;20287;-86
2022/11/29 08:02:44;;;;;;;5.27;4.20;;;2.60;99.90;;;;;;4973749;28;20552;-87
2022/11/29 08:05:13;;;;;;;11.57;5.90;;;;;;;;;;4979336;28;20440;-85
2022/11/29 08:07:39;;;;;;;7.40;3.80;;;1.20;99.90;;;;;;4975315;28;20533;-86
2022/11/29 08:10:12;;;;;;;5.47;3.23;;;1.20;99.90;;;;;;4991014;28;20287;-86
2022/11/29 08:12:48;;;;;;;5.50;3.80;;;1.10;99.90;;;;;;4978092;28;20176;-87
2022/11/29 08:15:15;;;;;;;6.60;3.43;;;1.20;99.90;;;;;;4977479;28;20181;-88
2022/11/29 08:17:41;;;;;;;5.20;4.30;;;;;;;;;;4978437;28;20577;-88
2022/11/29 08:20:14;;;;;;;9.50;3.93;;;1.10;99.90;;;;;;4992820;28;20228;-88
2022/11/29 08:22:40;;;;;;;4.83;3.60;;;;;;;;;;4968093;28;20254;-87
2022/11/29 08:25:07;;;;;;;9.83;4.27;;;1.10;99.90;;;;;;4996448;28;20184;-87
2022/11/29 08:27:35;;;;;;;18.23;5.50;;;;;;;;;;4986578;28;20222;-89
2022/11/29 08:30:01;;;;;;;3.00;2.63;;;;;;;;;;4980906;28;20185;-88
2022/11/29 08:32:30;;;;;;;4.73;2.37;;;;;;;;;;4979481;28;20198;-89
2022/11/29 08:34:56;;;;;;;10.57;3.43;;;;;;;;;;4979057;28;20271;-87
2022/11/29 08:37:25;;;;;;;14.03;3.77;;;;;;;;;;4976123;28;20189;-88
2022/11/29 08:39:54;;;;;;;9.77;3.83;;;1.30;99.90;;;;;;4975700;28;20179;-88
2022/11/29 08:42:20;;;;;;;9.63;5.10;;;;;;;;;;4975404;28;20184;-88
2022/11/29 08:44:48;;;;;;;7.83;3.07;;;1.30;99.90;;;;;;4978702;28;20190;-90
2022/11/29 08:50:03;;;;;;;3.97;2.93;;;1.50;99.90;;;;;;4981232;28;20416;-87
2022/11/29 08:55:21;;;;;;;4.13;3.63;;;1.40;99.90;;;;;;4997099;28;20245;-88
2022/11/29 08:57:48;;;;;;;2.70;2.27;;;1.40;99.90;;;;;;4995340;28;20174;-91
2022/11/29 09:00:18;;;;;;;10.67;3.97;;;1.50;99.90;;;;;;4995690;28;20176;-89
2022/11/29 09:02:46;;;;;;;5.67;4.20;;;;;;;;;;4995455;28;20180;-88
2022/11/29 09:05:14;;;;;;;4.47;3.47;;;;;;;;;;4979090;28;20188;-88
2022/11/29 09:07:42;;;;;;;3.83;2.70;;;;;;;;;;4978899;28;20174;-91
2022/11/29 09:10:09;;;;;;;3.17;2.93;;;;;;;;;;4978522;28;20177;-89
2022/11/29 09:12:38;;;;;;;5.83;3.20;;;;;;;;;;4980692;28;20186;-88
2022/11/29 09:15:06;;;;;;;5.77;4.50;;;1.50;99.90;;;;;;4979123;28;20194;-89
2022/11/29 09:17:35;;;;;;;16.93;4.53;;;;;;;;;;4968284;28;20178;-88
2022/11/29 09:20:04;;;;;;;7.47;4.30;;;;;;;;;;4978179;28;20182;-91
2022/11/29 09:22:32;;;;;;;6.20;3.23;;;1.60;99.90;;;;;;4979144;28;20239;-90
2022/11/29 09:24:58;;;;;;;3.57;2.57;;;;;;;;;;4962601;28;20203;-86
2022/11/29 09:27:24;;;;;;;8.07;2.87;;;;;;;;;;4978761;28;20234;-88
2022/11/29 09:29:54;;;;;;;6.13;3.47;;;1.70;99.90;;;;;;4963318;28;20196;-88
2022/11/29 09:32:20;;;;;;;2.57;1.97;;;;;;;;;;4962944;28;20196;-89
2022/11/29 09:34:49;;;;;;;6.00;3.20;;;;;;;;;;4978412;28;20309;-85
2022/11/29 09:37:15;;;;;;;7.83;3.57;;;;;;;;;;4978362;28;20642;-87
2022/11/29 09:39:43;;;;;;;6.70;3.53;;;;;;;;;;4978927;28;20186;-87
2022/11/29 09:42:35;;;;;;;4.93;2.77;;;1.70;99.90;;;;;;4962712;28;20200;-87
2022/11/29 09:45:11;;;;;;;4.50;3.00;;;1.70;99.90;;;;;;4978369;28;20182;-88
2022/11/29 09:47:54;;;;;;;3.07;2.03;;;1.80;99.90;;;;;;4978491;28;20178;-87
2022/11/29 09:50:41;;;;;;;3.30;3.07;;;1.80;99.90;;;;;;4978504;28;20190;-87
2022/11/29 09:53:16;;;;;;;10.50;3.87;;;1.90;99.90;;;;;;4979158;28;20685;-86
2022/11/29 09:55:59;;;;;;;2.57;2.13;;;1.90;99.90;;;;;;4979647;28;20249;-86
2022/11/29 09:58:30;;;;;;;3.93;1.87;;;2.00;99.90;;;;;;4997404;28;20168;-87
2022/11/29 10:01:04;;;;;;;6.37;3.63;;;2.00;99.90;;;;;;4995314;28;20246;-85
2022/11/29 10:03:30;;;;;;;7.00;3.17;;;;;;;;;;4978113;28;20276;-87
2022/11/29 10:06:12;;;;;;;3.80;3.37;;;2.10;99.90;;;;;;4997560;28;20683;-88
2022/11/29 10:08:49;;;;;;;8.23;4.90;;;2.30;99.90;;;;;;4980432;28;20179;-86
2022/11/29 10:11:26;;;;;;;11.63;3.40;;;2.30;99.90;;;;;;4978286;28;20204;-86
2022/11/29 10:14:06;;;;;;;4.67;4.00;;;2.30;99.90;;;;;;4979052;28;20232;-86
2022/11/29 10:16:46;;;;;;;8.90;4.37;;;2.40;99.90;;;;;;4978041;28;20179;-87
2022/11/29 10:19:33;;;;;;;5.07;3.37;;;2.30;99.90;;;;;;4977901;28;20188;-88
2022/11/29 10:22:07;;;;;;;3.13;2.40;;;2.30;99.90;;;;;;4995109;28;20173;-89
2022/11/29 10:24:37;;;;;;;8.47;2.97;;;2.30;99.90;;;;;;4978471;28;20206;-86
2022/11/29 10:27:27;;;;;;;6.60;3.30;;;2.30;99.90;;;;;;4961703;28;20233;-87
2022/11/29 10:29:53;;;;;;;4.73;2.50;;;;;;;;;;4995592;28;20168;-89
2022/11/29 10:32:21;;;;;;;6.30;4.50;;;2.40;99.90;;;;;;4977354;28;20247;-87
2022/11/29 10:34:48;;;;;;;3.93;3.27;;;2.40;99.90;;;;;;4977750;28;20654;-87
2022/11/29 10:37:20;;;;;;;4.97;3.23;;;2.50;99.90;;;;;;4963112;28;20687;-88
2022/11/29 10:39:48;;;;;;;10.70;4.10;;;2.50;99.90;;;;;;4977874;28;20188;-89
2022/11/29 10:45:26;;;;;;;5.60;3.77;;;2.60;99.90;;;;;;4995757;28;20684;-89
2022/11/29 10:47:57;;;;;;;3.60;2.90;;;2.60;99.90;;;;;;4977975;28;20181;-89
2022/11/29 10:50:26;;;;;;;24.13;4.33;;;2.60;99.90;;;;;;4977119;28;20181;-89
2022/11/29 10:53:07;;;;;;;10.10;4.90;;;2.60;99.90;;;;;;4977443;28;20192;-87
2022/11/29 10:55:42;;;;;;;3.60;2.73;;;2.50;99.90;;;;;;4978145;28;20180;-88
2022/11/29 10:58:25;;;;;;;8.67;3.17;;;2.40;99.90;;;;;;4976989;28;20188;-89
2022/11/29 11:01:11;;;;;;;1.60;1.50;;;2.30;99.90;;;;;;4962580;28;20190;-92
2022/11/29 11:03:53;;;;;;;5.70;4.10;;;2.30;99.90;;;;;;4995694;28;20207;-90
2022/11/29 11:06:25;;;;;;;6.13;4.50;;;2.20;99.90;;;;;;4977690;28;20185;-91
2022/11/29 11:08:56;;;;;;;7.33;2.93;;;2.30;99.90;;;;;;4977513;28;20181;-87
2022/11/29 11:11:40;;;;;;;10.30;4.30;;;2.20;99.90;;;;;;4977701;28;20660;-91
2022/11/29 11:14:17;;;;;;;4.73;3.63;;;2.20;99.90;;;;;;4975188;28;20202;-87
2022/11/29 11:16:43;;;;;;;6.93;4.23;;;;;;;;;;4977600;28;20182;-89
2022/11/29 11:20:14;;;;;;;;;;;;;;;;;;;;;
2022/11/29 11:22:42;;;;;;;3.97;3.63;;;;;;;;;;4994625;28;20162;-88
2022/11/29 11:25:33;;;;;;;7.07;4.40;;;2.20;99.90;;;;;;4976359;28;20187;-88
2022/11/29 11:28:23;;;;;;;10.87;4.93;;;2.20;99.90;;;;;;4977090;28;20260;-89
2022/11/29 11:31:03;;;;;;;5.20;3.07;;;2.20;99.90;;;;;;4967805;28;20226;-88
2022/11/29 11:33:36;;;;;;;5.00;3.40;;;2.20;99.90;;;;;;4977010;28;20674;-88
2022/11/29 11:36:22;;;;;;;7.80;3.13;;;2.20;99.90;;;;;;4976895;28;20184;-88
2022/11/29 11:38:58;;;;;;;7.83;3.70;;;2.20;99.90;;;;;;4977118;28;20634;-88
2022/11/29 11:42:35;;;;;;;5.13;3.30;;;2.20;99.90;;;;;;4976456;28;20636;-89
2022/11/29 11:44:48;;;;;;;6.57;4.13;;;2.20;99.90;;;;;;4998106;28;20189;-87
2022/11/29 11:47:26;;;;;;;3.70;3.30;;;2.20;99.90;;;;;;4986247;28;20188;-89
2022/11/29 11:50:03;;;;;;;13.17;5.10;;;2.20;99.90;;;;;;4991540;28;20173;-89
2022/11/29 11:52:38;;;;;;;7.00;4.63;;;2.20;99.90;;;;;;4986997;28;20249;-89
2022/11/29 11:55:39;;;;;;;6.53;2.57;;;2.20;99.90;;;;;;4989577;28;20201;-89
2022/11/29 11:58:11;;;;;;;5.83;4.23;;;2.10;99.90;;;;;;5006784;28;20184;-86
2022/11/29 12:00:57;;;;;;;10.10;4.63;;;2.20;99.90;;;;;;4993751;28;20190;-89
2022/11/29 12:03:49;;;;;;;27.97;2.77;;;2.10;99.90;;;;;;4985664;28;20270;-89
2022/11/29 12:06:15;;;;;;;4.57;3.17;;;;;;;;;;4984806;28;20178;-88
2022/11/29 12:08:49;;;;;;;6.20;3.40;;;2.10;99.90;;;;;;4981366;28;20219;-88
2022/11/29 12:11:23;;;;;;;8.30;3.50;;;2.20;99.90;;;;;;4980419;28;20180;-89
2022/11/29 12:13:55;;;;;;;6.03;3.10;;;2.10;99.90;;;;;;4964569;28;20301;-87
2022/11/29 12:16:33;;;;;;;2.77;2.40;;;2.10;99.90;;;;;;4980245;28;20176;-87
2022/11/29 12:19:12;;;;;;;4.93;4.03;;;2.20;99.90;;;;;;4979764;28;20653;-88
2022/11/29 12:21:43;;;;;;;1.83;1.67;;;2.20;99.90;;;;;;4980351;28;20174;-89
2022/11/29 12:24:47;;;;;;;9.43;3.13;;;2.10;99.90;;;;;;4980258;28;20203;-87
2022/11/29 12:27:14;;;;;;;3.83;2.63;;;;;;;;;;4981097;28;20243;-88
2022/11/29 12:29:42;;;;;;;9.30;4.27;;;2.10;99.90;;;;;;4982475;28;20262;-89
2022/11/29 12:32:48;;;;;;;2.20;2.03;;;2.00;99.90;;;;;;4983615;28;20274;-88
2022/11/29 12:35:46;;;;;;;5.73;3.07;;;2.10;99.90;;;;;;4980513;28;20201;-88
2022/11/29 12:38:29;;;;;;;3.70;3.23;;;2.00;99.90;;;;;;4983303;28;20627;-90
2022/11/29 12:41:27;;;;;;;8.33;3.10;;;2.00;99.90;;;;;;4999424;28;20609;-88
2022/11/29 12:44:42;;;;;;;4.33;3.93;;;2.00;99.90;;;;;;4982402;28;20239;-87
2022/11/29 12:47:50;;;;;;;4.00;2.93;;;1.90;99.90;;;;;;4997362;28;20630;-89
2022/11/29 12:50:16;;;;;;;8.07;2.90;;;;;;;;;;4980743;28;20182;-90
2022/11/29 12:53:12;;;;;;;6.03;3.07;;;2.00;99.90;;;;;;4988116;28;20217;-89
2022/11/29 12:56:03;;;;;;;2.43;2.27;;;1.90;99.90;;;;;;4979340;28;20215;-88
2022/11/29 12:58:44;;;;;;;3.60;3.13;;;2.00;99.90;;;;;;4981091;28;20645;-88
2022/11/29 13:01:13;;;;;;;5.27;3.33;;;;;;;;;;4981879;28;20191;-89
2022/11/29 13:04:05;;;;;;;5.03;4.60;;;1.90;99.90;;;;;;4994380;28;20192;-88
2022/11/29 13:06:54;;;;;;;7.87;4.93;;;1.90;99.90;;;;;;4957180;28;20185;-90
2022/11/29 13:10:05;;;;;;;5.43;3.80;;;1.90;99.90;;;;;;4997059;28;20615;-89
2022/11/29 13:12:48;;;;;;;5.03;3.13;;;1.90;99.90;;;;;;4982300;28;20181;-88
2022/11/29 13:15:20;;;;;;;6.30;3.40;;;1.90;99.90;;;;;;4989543;28;20292;-88
2022/11/29 13:18:07;;;;;;;4.10;3.03;;;1.90;99.90;;;;;;4987962;28;20206;-88
2022/11/29 13:20:45;;;;;;;3.83;3.50;;;1.90;99.90;;;;;;5002271;28;20242;-88
2022/11/29 13:23:38;;;;;;;3.93;3.17;;;1.90;99.90;;;;;;4980729;28;20181;-89
2022/11/29 13:26:13;;;;;;;12.77;6.13;;;1.90;99.90;;;;;;4978896;28;20293;-87
2022/11/29 13:28:46;;;;;;;8.67;4.03;;;1.90;99.90;;;;;;4978935;28;20187;-89
2022/11/29 13:31:20;;;;;;;15.37;7.37;;;1.90;99.90;;;;;;4995824;28;20173;-88
2022/11/29 13:34:07;;;;;;;5.13;3.90;;;1.90;99.90;;;;;;5002774;28;20194;-87
2022/11/29 13:37:02;;;;;;;26.07;12.87;;;1.90;99.90;;;;;;5003029;28;20168;-89
2022/11/29 13:40:10;;;;;;;31.33;15.77;;;1.90;99.90;;;;;;5003504;28;20178;-91
2022/11/29 13:43:04;;;;;;;10.60;8.93;;;1.90;99.90;;;;;;4975702;28;20208;-85
2022/11/29 13:45:54;;;;;;;9.43;6.57;;;1.90;99.90;;;;;;5019591;28;20197;-86
2022/11/29 13:48:33;;;;;;;25.73;13.27;;;1.80;99.90;;;;;;5002620;28;20167;-94
2022/11/29 13:51:29;;;;;;;21.60;9.53;;;1.80;99.90;;;;;;5019903;28;20153;-88
2022/11/29 13:54:00;;;;;;;3.70;3.40;;;1.80;99.90;;;;;;5002597;28;20198;-91
2022/11/29 13:56:45;;;;;;;5.50;4.87;;;1.80;99.90;;;;;;5002304;28;20233;-89
2022/11/29 13:59:26;;;;;;;9.33;3.33;;;1.80;99.90;;;;;;4983770;28;20170;-90
2022/11/29 14:01:58;;;;;;;9.27;3.77;;;1.80;99.90;;;;;;4991053;28;20166;-91
2022/11/29 14:04:30;;;;;;;6.17;4.03;;;1.80;99.90;;;;;;4969231;28;20167;-91
2022/11/29 14:07:17;;;;;;;9.20;3.30;;;1.70;99.90;;;;;;4970275;28;20180;-89
2022/11/29 14:10:06;;;;;;;3.47;3.17;;;1.70;99.90;;;;;;4966945;28;20189;-88
2022/11/29 14:12:54;;;;;;;5.43;4.50;;;1.70;99.90;;;;;;4962676;28;20643;-89
2022/11/29 14:15:30;;;;;;;8.07;5.83;;;1.70;99.90;;;;;;4979272;28;20290;-90
2022/11/29 14:18:07;;;;;;;15.70;5.33;;;1.70;99.90;;;;;;4978713;28;20192;-90
2022/11/29 14:20:42;;;;;;;7.73;6.00;;;1.70;99.90;;;;;;4975954;28;20281;-89
2022/11/29 14:23:08;;;;;;;15.07;5.07;;;;;;;;;;4970423;28;20192;-88
2022/11/29 14:25:34;;;;;;;10.37;3.70;;;;;;;;;;4975539;28;20696;-92
2022/11/29 14:28:20;;;;;;;16.00;8.17;;;1.70;99.90;;;;;;4978502;28;20222;-88
2022/11/29 14:31:03;;;;;;;19.00;7.47;;;1.70;99.90;;;;;;4967579;28;20197;-87
2022/11/29 14:33:29;;;;;;;56.33;22.93;;;;;;;;;;4963353;28;20202;-88
2022/11/29 14:36:18;;;;;;;7.13;4.23;;;1.80;99.90;;;;;;4968940;28;20212;-89
2022/11/29 14:38:51;;;;;;;17.63;7.33;;;1.70;99.90;;;;;;4961294;28;20194;-89
2022/11/29 14:41:19;;;;;;;20.67;9.70;;;;;;;;;;4977486;28;20285;-89
2022/11/29 14:43:48;;;;;;;147.73;50.83;;;1.70;99.90;;;;;;4993728;28;20190;-89
2022/11/29 14:46:14;;;;;;;28.97;9.70;;;;;;;;;;4968013;28;20174;-88
2022/11/29 14:49:03;;;;;;;11.27;4.90;;;1.70;99.90;;;;;;4959711;28;20264;-89
2022/11/29 14:51:32;;;;;;;23.17;9.10;;;1.70;99.90;;;;;;4977102;28;20548;-91
2022/11/29 14:54:16;;;;;;;103.10;35.43;;;1.70;99.90;;;;;;4970721;28;20210;-88
2022/11/29 14:56:44;;;;;;;18.03;9.73;;;;;;;;;;4957817;28;20386;-87
2022/11/29 14:59:41;;;;;;;28.47;9.53;;;1.70;99.90;;;;;;4975660;28;20180;-88
2022/11/29 15:02:08;;;;;;;82.80;20.00;;;;;;;;;;4969749;28;20212;-89